createdAt,value
2018-06-18T00:00:17.249Z,70.19
2018-06-18T00:01:20.677Z,70.12
2018-06-18T00:02:24.411Z,70.07
2018-06-18T00:03:27.299Z,70.84
2018-06-18T00:04:30.720Z,70.04
2018-06-18T00:05:33.829Z,70.47
2018-06-18T00:06:36.654Z,70.01
2018-06-18T00:07:39.623Z,69.88
2018-06-18T00:08:42.426Z,69.58
2018-06-18T00:09:46.229Z,70.40
2018-06-18T00:10:56.402Z,70.05
2018-06-18T00:11:59.228Z,70.53
2018-06-18T00:13:02.110Z,70.44
2018-06-18T00:14:06.158Z,70.29
2018-06-18T00:15:08.980Z,70.55
2018-06-18T00:16:11.787Z,71.16
2018-06-18T00:17:17.057Z,70.93
2018-06-18T00:18:19.999Z,70.90
2018-06-18T00:19:22.847Z,71.20
2018-06-18T00:20:25.700Z,71.49
2018-06-18T00:21:28.669Z,71.41
2018-06-18T00:22:32.424Z,70.92
2018-06-18T00:23:35.560Z,71.64
2018-06-18T00:24:39.453Z,70.98
2018-06-18T00:25:42.355Z,71.32
2018-06-18T00:26:45.785Z,70.66
2018-06-18T00:27:48.839Z,71.62
2018-06-18T00:28:51.649Z,71.57
2018-06-18T00:29:58.269Z,71.18
2018-06-18T00:31:01.109Z,72.43
2018-06-18T00:32:03.953Z,71.64
2018-06-18T00:33:06.755Z,71.52
2018-06-18T00:34:09.558Z,71.07
2018-06-18T00:35:12.369Z,71.58
2018-06-18T00:36:15.463Z,71.41
2018-06-18T00:37:18.249Z,71.02
2018-06-18T00:38:21.592Z,70.55
2018-06-18T00:39:24.605Z,70.86
2018-06-18T00:40:27.485Z,70.69
2018-06-18T00:41:30.495Z,71.39
2018-06-18T00:42:33.619Z,71.53
2018-06-18T00:43:36.437Z,70.99
2018-06-18T00:44:39.256Z,71.49
2018-06-18T00:45:42.050Z,71.69
2018-06-18T00:46:44.866Z,70.90
2018-06-18T00:47:47.682Z,71.66
2018-06-18T00:48:52.433Z,70.87
2018-06-18T00:49:55.245Z,70.97
2018-06-18T00:50:58.082Z,71.25
2018-06-18T00:52:00.936Z,70.87
2018-06-18T00:53:03.812Z,70.44
2018-06-18T00:54:06.591Z,70.97
2018-06-18T00:55:09.783Z,70.77
2018-06-18T00:56:13.703Z,71.08
2018-06-18T00:57:16.816Z,70.93
2018-06-18T00:58:19.610Z,71.40
2018-06-18T00:59:22.472Z,71.30
2018-06-18T01:00:25.391Z,70.71
2018-06-18T01:01:28.600Z,71.64
2018-06-18T01:02:31.406Z,71.45
2018-06-18T01:03:35.361Z,71.47
2018-06-18T01:04:38.152Z,71.55
2018-06-18T01:05:40.939Z,71.76
2018-06-18T01:06:43.734Z,71.39
2018-06-18T01:07:46.918Z,71.35
2018-06-18T01:08:49.751Z,71.64
2018-06-18T01:09:53.348Z,71.27
2018-06-18T01:10:56.165Z,71.96
2018-06-18T01:11:58.979Z,72.04
2018-06-18T01:13:01.832Z,71.79
2018-06-18T01:14:04.964Z,72.14
2018-06-18T01:15:07.779Z,71.75
2018-06-18T01:16:10.593Z,71.83
2018-06-18T01:17:13.384Z,71.25
2018-06-18T01:18:16.152Z,71.72
2018-06-18T01:19:18.951Z,71.29
2018-06-18T01:20:23.079Z,71.41
2018-06-18T01:21:25.874Z,71.34
2018-06-18T01:22:28.688Z,71.96
2018-06-18T01:23:31.458Z,71.84
2018-06-18T01:24:35.388Z,71.49
2018-06-18T01:25:39.047Z,70.87
2018-06-18T01:26:42.319Z,70.75
2018-06-18T01:27:45.110Z,71.35
2018-06-18T01:28:47.918Z,72.10
2018-06-18T01:29:50.759Z,71.71
2018-06-18T01:30:53.566Z,71.51
2018-06-18T01:31:57.247Z,71.47
2018-06-18T01:33:00.420Z,72.09
2018-06-18T01:34:03.207Z,71.73
2018-06-18T01:35:06.010Z,71.72
2018-06-18T01:36:08.778Z,72.12
2018-06-18T01:37:11.542Z,71.61
2018-06-18T01:38:14.308Z,71.25
2018-06-18T01:39:17.627Z,71.71
2018-06-18T01:40:20.422Z,71.35
2018-06-18T01:41:23.276Z,72.05
2018-06-18T01:42:26.052Z,72.19
2018-06-18T01:43:28.822Z,72.04
2018-06-18T01:44:31.577Z,71.99
2018-06-18T01:45:34.793Z,71.46
2018-06-18T01:46:38.877Z,72.22
2018-06-18T01:47:42.541Z,72.67
2018-06-18T01:48:45.267Z,71.97
2018-06-18T01:49:48.053Z,72.48
2018-06-18T01:50:50.843Z,72.61
2018-06-18T01:51:55.223Z,72.15
2018-06-18T01:52:58.615Z,71.82
2018-06-18T01:54:01.462Z,72.11
2018-06-18T01:55:04.232Z,71.92
2018-06-18T01:56:07.024Z,71.70
2018-06-18T01:57:09.801Z,72.30
2018-06-18T01:58:13.447Z,71.41
2018-06-18T01:59:16.199Z,71.55
2018-06-18T02:00:18.975Z,71.95
2018-06-18T02:01:21.777Z,71.22
2018-06-18T02:02:26.644Z,71.42
2018-06-18T02:03:29.409Z,71.71
2018-06-18T02:04:32.649Z,71.87
2018-06-18T02:05:36.023Z,71.21
2018-06-18T02:06:38.815Z,71.61
2018-06-18T02:07:42.190Z,71.40
2018-06-18T02:08:44.953Z,72.37
2018-06-18T02:09:47.742Z,71.72
2018-06-18T02:10:51.124Z,71.81
2018-06-18T02:11:53.854Z,72.32
2018-06-18T02:12:56.641Z,72.37
2018-06-18T02:13:59.442Z,71.62
2018-06-18T02:15:02.240Z,71.55
2018-06-18T02:16:05.037Z,72.16
2018-06-18T02:17:08.189Z,72.23
2018-06-18T02:18:10.992Z,71.63
2018-06-18T02:19:13.827Z,72.18
2018-06-18T02:20:16.577Z,71.56
2018-06-18T02:21:19.366Z,71.87
2018-06-18T02:22:22.241Z,72.29
2018-06-18T02:23:25.443Z,71.95
2018-06-18T02:24:29.447Z,72.69
2018-06-18T02:25:32.240Z,72.43
2018-06-18T02:26:35.020Z,72.50
2018-06-18T02:27:42.600Z,72.76
2018-06-18T02:28:50.356Z,72.06
2018-06-18T02:29:58.450Z,72.02
2018-06-18T02:31:06.067Z,73.16
2018-06-18T02:32:13.802Z,72.91
2018-06-18T02:33:21.454Z,73.03
2018-06-18T02:34:29.031Z,73.06
2018-06-18T02:35:37.264Z,72.72
2018-06-18T02:36:45.022Z,72.90
2018-06-18T02:37:52.870Z,72.61
2018-06-18T02:39:00.687Z,72.85
2018-06-18T02:40:08.330Z,72.54
2018-06-18T02:41:11.314Z,72.96
2018-06-18T02:42:14.482Z,72.96
2018-06-18T02:43:19.078Z,73.44
2018-06-18T02:44:21.856Z,74.01
2018-06-18T02:45:24.624Z,73.83
2018-06-18T02:46:27.374Z,72.68
2018-06-18T02:47:30.174Z,73.02
2018-06-18T02:48:33.427Z,73.59
2018-06-18T02:49:36.191Z,73.54
2018-06-18T02:50:38.970Z,73.32
2018-06-18T02:51:41.717Z,73.24
2018-06-18T02:52:44.447Z,73.35
2018-06-18T02:53:47.213Z,73.05
2018-06-18T02:54:50.272Z,73.00
2018-06-18T02:55:53.496Z,72.66
2018-06-18T02:56:56.289Z,72.32
2018-06-18T02:57:59.815Z,72.66
2018-06-18T02:59:02.603Z,73.12
2018-06-18T03:00:06.253Z,72.62
2018-06-18T03:01:10.520Z,73.16
2018-06-18T03:02:13.328Z,73.31
2018-06-18T03:03:17.234Z,73.36
2018-06-18T03:04:19.984Z,73.55
2018-06-18T03:05:22.756Z,73.35
2018-06-18T03:06:25.504Z,73.15
2018-06-18T03:07:28.556Z,73.22
2018-06-18T03:08:32.185Z,73.39
2018-06-18T03:09:34.934Z,73.76
2018-06-18T03:10:37.715Z,73.99
2018-06-18T03:11:40.665Z,74.04
2018-06-18T03:12:43.507Z,74.61
2018-06-18T03:13:46.541Z,73.71
2018-06-18T03:14:49.304Z,73.46
2018-06-18T03:15:52.107Z,73.68
2018-06-18T03:16:54.865Z,73.71
2018-06-18T03:17:57.664Z,72.75
2018-06-18T03:19:05.335Z,73.08
2018-06-18T03:20:13.419Z,73.12
2018-06-18T03:21:21.114Z,72.97
2018-06-18T03:22:28.767Z,72.89
2018-06-18T03:23:36.313Z,73.28
2018-06-18T03:24:43.991Z,73.09
2018-06-18T03:25:51.595Z,72.92
2018-06-18T03:26:59.619Z,72.90
2018-06-18T03:28:07.164Z,72.78
2018-06-18T03:29:16.533Z,72.93
2018-06-18T03:30:20.325Z,72.77
2018-06-18T03:31:23.839Z,72.41
2018-06-18T03:32:26.615Z,73.41
2018-06-18T03:33:29.712Z,73.06
2018-06-18T03:34:32.481Z,72.53
2018-06-18T03:35:35.318Z,73.30
2018-06-18T03:36:38.053Z,72.86
2018-06-18T03:37:40.843Z,73.26
2018-06-18T03:38:43.614Z,72.67
2018-06-18T03:39:46.784Z,72.75
2018-06-18T03:40:49.657Z,72.96
2018-06-18T03:41:52.507Z,73.32
2018-06-18T03:42:55.310Z,72.92
2018-06-18T03:44:01.632Z,72.74
2018-06-18T03:45:04.442Z,72.47
2018-06-18T03:46:07.762Z,72.92
2018-06-18T03:47:10.547Z,73.04
2018-06-18T03:48:13.317Z,72.62
2018-06-18T03:49:16.114Z,73.18
2018-06-18T03:50:18.926Z,73.09
2018-06-18T03:51:21.734Z,73.01
2018-06-18T03:52:27.970Z,73.05
2018-06-18T03:53:30.765Z,72.63
2018-06-18T03:54:34.328Z,72.57
2018-06-18T03:55:37.134Z,72.85
2018-06-18T03:56:39.925Z,72.79
2018-06-18T03:57:42.698Z,73.28
2018-06-18T03:58:45.901Z,73.74
2018-06-18T03:59:48.822Z,73.20
2018-06-18T04:00:56.362Z,72.78
2018-06-18T04:02:04.037Z,73.02
2018-06-18T04:03:11.781Z,73.02
2018-06-18T04:04:19.380Z,73.56
2018-06-18T04:05:27.397Z,73.03
2018-06-18T04:06:35.113Z,72.99
2018-06-18T04:07:42.740Z,73.11
2018-06-18T04:08:48.488Z,72.37
2018-06-18T04:09:56.736Z,72.87
2018-06-18T04:11:04.436Z,72.74
2018-06-18T04:12:10.263Z,72.73
2018-06-18T04:13:14.461Z,72.35
2018-06-18T04:14:17.357Z,72.02
2018-06-18T04:15:20.104Z,72.08
2018-06-18T04:16:22.884Z,72.63
2018-06-18T04:17:25.669Z,72.68
2018-06-18T04:18:28.748Z,72.99
2018-06-18T04:19:31.607Z,72.49
2018-06-18T04:20:34.373Z,72.52
2018-06-18T04:21:37.115Z,73.39
2018-06-18T04:22:40.439Z,73.33
2018-06-18T04:23:44.660Z,73.23
2018-06-18T04:24:47.763Z,72.50
2018-06-18T04:25:50.529Z,72.72
2018-06-18T04:26:53.545Z,72.41
2018-06-18T04:27:56.423Z,73.10
2018-06-18T04:28:59.970Z,72.38
2018-06-18T04:30:02.758Z,72.79
2018-06-18T04:31:05.872Z,72.93
2018-06-18T04:32:08.601Z,72.52
2018-06-18T04:33:11.436Z,72.76
2018-06-18T04:34:14.290Z,72.64
2018-06-18T04:35:17.076Z,72.77
2018-06-18T04:36:19.850Z,72.47
2018-06-18T04:37:23.800Z,71.80
2018-06-18T04:38:27.252Z,71.93
2018-06-18T04:39:30.337Z,72.14
2018-06-18T04:40:33.086Z,71.88
2018-06-18T04:41:39.819Z,71.21
2018-06-18T04:42:47.510Z,71.32
2018-06-18T04:43:55.585Z,71.91
2018-06-18T04:45:03.292Z,70.93
2018-06-18T04:46:10.989Z,71.08
2018-06-18T04:47:18.645Z,70.59
2018-06-18T04:48:26.693Z,70.60
2018-06-18T04:49:34.417Z,70.79
2018-06-18T04:50:42.554Z,71.33
2018-06-18T04:51:45.389Z,71.13
2018-06-18T04:52:48.160Z,71.25
2018-06-18T04:53:50.956Z,71.75
2018-06-18T04:54:53.765Z,71.82
2018-06-18T04:55:56.556Z,71.58
2018-06-18T04:56:59.857Z,71.61
2018-06-18T04:58:02.634Z,71.23
2018-06-18T04:59:08.472Z,71.37
2018-06-18T05:00:11.263Z,71.15
2018-06-18T05:01:14.043Z,70.90
2018-06-18T05:02:16.838Z,71.07
2018-06-18T05:03:20.068Z,71.54
2018-06-18T05:04:22.876Z,71.33
2018-06-18T05:05:25.664Z,71.88
2018-06-18T05:06:28.446Z,71.63
2018-06-18T05:07:31.269Z,72.11
2018-06-18T05:08:34.387Z,71.79
2018-06-18T05:09:38.870Z,71.15
2018-06-18T05:10:42.359Z,71.31
2018-06-18T05:11:45.181Z,71.63
2018-06-18T05:12:48.015Z,71.33
2018-06-18T05:13:50.862Z,71.96
2018-06-18T05:14:53.871Z,72.15
2018-06-18T05:15:57.015Z,71.91
2018-06-18T05:17:00.179Z,72.21
2018-06-18T05:18:02.993Z,72.08
2018-06-18T05:19:05.889Z,72.29
2018-06-18T05:20:08.732Z,72.62
2018-06-18T05:21:11.541Z,71.83
2018-06-18T05:22:14.729Z,72.62
2018-06-18T05:23:19.121Z,71.94
2018-06-18T05:24:21.942Z,72.17
2018-06-18T05:25:24.759Z,71.87
2018-06-18T05:26:27.603Z,71.66
2018-06-18T05:27:30.570Z,72.52
2018-06-18T05:28:34.438Z,72.29
2018-06-18T05:29:37.254Z,71.15
2018-06-18T05:30:46.359Z,72.06
2018-06-18T05:31:49.657Z,71.02
2018-06-18T05:32:52.449Z,70.77
2018-06-18T05:33:55.214Z,70.56
2018-06-18T05:34:58.311Z,69.94
2018-06-18T05:36:01.263Z,70.01
2018-06-18T05:37:04.104Z,70.36
2018-06-18T05:38:06.853Z,70.60
2018-06-18T05:39:09.897Z,70.44
2018-06-18T05:40:15.218Z,70.52
2018-06-18T05:41:19.736Z,70.21
2018-06-18T05:42:24.476Z,70.21
2018-06-18T05:43:27.408Z,69.97
2018-06-18T05:44:34.641Z,69.66
2018-06-18T05:45:37.462Z,69.85
2018-06-18T05:46:40.253Z,70.21
2018-06-18T05:47:43.529Z,69.35
2018-06-18T05:48:46.340Z,69.76
2018-06-18T05:49:49.247Z,69.46
2018-06-18T05:50:52.212Z,70.14
2018-06-18T05:51:54.979Z,70.06
2018-06-18T05:52:58.210Z,69.22
2018-06-18T05:54:01.647Z,69.93
2018-06-18T05:55:05.203Z,69.32
2018-06-18T05:56:09.709Z,69.60
2018-06-18T05:57:12.489Z,70.06
2018-06-18T05:58:16.861Z,69.44
2018-06-18T05:59:19.890Z,69.68
2018-06-18T06:00:22.834Z,69.65
2018-06-18T06:01:25.914Z,70.33
2018-06-18T06:02:28.794Z,70.58
2018-06-18T06:03:31.814Z,70.00
2018-06-18T06:04:34.642Z,70.09
2018-06-18T06:05:37.674Z,70.38
2018-06-18T06:06:40.432Z,70.06
2018-06-18T06:07:43.191Z,69.67
2018-06-18T06:08:46.207Z,70.19
2018-06-18T06:09:49.153Z,70.30
2018-06-18T06:10:52.400Z,70.44
2018-06-18T06:11:56.634Z,70.25
2018-06-18T06:12:59.415Z,70.53
2018-06-18T06:14:05.199Z,70.47
2018-06-18T06:15:07.993Z,69.47
2018-06-18T06:16:10.824Z,70.29
2018-06-18T06:17:14.056Z,69.68
2018-06-18T06:18:16.875Z,69.46
2018-06-18T06:19:19.632Z,68.74
2018-06-18T06:20:22.433Z,69.39
2018-06-18T06:21:25.272Z,68.96
2018-06-18T06:22:28.064Z,69.44
2018-06-18T06:23:31.253Z,69.66
2018-06-18T06:24:34.190Z,68.72
2018-06-18T06:25:37.109Z,68.57
2018-06-18T06:26:39.953Z,68.01
2018-06-18T06:27:42.749Z,68.39
2018-06-18T06:28:45.569Z,68.97
2018-06-18T06:29:48.827Z,68.00
2018-06-18T06:30:52.827Z,68.29
2018-06-18T06:31:55.861Z,68.23
2018-06-18T06:32:59.632Z,68.85
2018-06-18T06:34:02.468Z,69.00
2018-06-18T06:35:05.241Z,68.13
2018-06-18T06:36:08.409Z,68.50
2018-06-18T06:37:11.714Z,68.83
2018-06-18T06:38:14.758Z,68.03
2018-06-18T06:39:17.544Z,68.34
2018-06-18T06:40:20.405Z,67.97
2018-06-18T06:41:23.183Z,67.49
2018-06-18T06:42:26.510Z,67.73
2018-06-18T06:43:29.302Z,67.88
2018-06-18T06:44:32.066Z,68.00
2018-06-18T06:45:34.869Z,68.23
2018-06-18T06:46:38.617Z,67.98
2018-06-18T06:47:42.994Z,67.33
2018-06-18T06:48:46.707Z,67.62
2018-06-18T06:49:49.483Z,67.24
2018-06-18T06:50:52.314Z,68.00
2018-06-18T06:51:55.230Z,67.81
2018-06-18T06:52:58.299Z,67.83
2018-06-18T06:54:01.086Z,66.91
2018-06-18T06:55:04.270Z,66.99
2018-06-18T06:56:10.040Z,67.49
2018-06-18T06:57:12.862Z,66.92
2018-06-18T06:58:15.963Z,67.05
2018-06-18T06:59:18.780Z,66.39
2018-06-18T07:00:23.108Z,66.18
2018-06-18T07:01:25.960Z,65.78
2018-06-18T07:02:28.771Z,65.84
2018-06-18T07:03:31.561Z,65.24
2018-06-18T07:04:34.328Z,65.03
2018-06-18T07:05:37.414Z,66.00
2018-06-18T07:06:40.512Z,66.50
2018-06-18T07:07:43.365Z,65.76
2018-06-18T07:08:47.181Z,66.35
2018-06-18T07:09:49.977Z,66.18
2018-06-18T07:10:52.843Z,65.93
2018-06-18T07:11:55.722Z,65.51
2018-06-18T07:12:59.244Z,65.19
2018-06-18T07:14:02.046Z,65.23
2018-06-18T07:15:04.845Z,64.58
2018-06-18T07:16:08.532Z,64.01
2018-06-18T07:17:12.171Z,64.44
2018-06-18T07:18:17.366Z,62.99
2018-06-18T07:19:20.141Z,63.90
2018-06-18T07:20:23.589Z,62.83
2018-06-18T07:21:28.770Z,63.68
2018-06-18T07:22:32.535Z,63.67
2018-06-18T07:23:35.330Z,62.70
2018-06-18T07:24:38.542Z,63.34
2018-06-18T07:25:41.346Z,64.26
2018-06-18T07:26:44.141Z,63.25
2018-06-18T07:27:46.912Z,63.18
2018-06-18T07:28:49.804Z,63.03
2018-06-18T07:29:53.233Z,63.02
2018-06-18T07:30:56.591Z,63.00
2018-06-18T07:31:59.404Z,61.98
2018-06-18T07:33:02.378Z,62.69
2018-06-18T07:34:05.794Z,62.12
2018-06-18T07:35:08.623Z,61.82
2018-06-18T07:36:12.930Z,61.90
2018-06-18T07:37:16.068Z,60.05
2018-06-18T07:38:18.883Z,59.89
2018-06-18T07:39:21.683Z,58.99
2018-06-18T07:40:24.572Z,58.88
2018-06-18T07:41:28.367Z,60.43
2018-06-18T07:42:31.781Z,60.70
2018-06-18T07:43:37.649Z,60.73
2018-06-18T07:44:41.060Z,61.44
2018-06-18T07:45:43.862Z,61.07
2018-06-18T07:46:46.750Z,59.66
2018-06-18T07:47:49.956Z,60.34
2018-06-18T07:48:52.761Z,60.48
2018-06-18T07:49:56.036Z,60.74
2018-06-18T07:50:58.855Z,58.78
2018-06-18T07:52:01.727Z,59.88
2018-06-18T07:53:04.580Z,60.33
2018-06-18T07:54:08.206Z,59.75
2018-06-18T07:55:12.138Z,59.98
2018-06-18T07:56:16.080Z,59.76
2018-06-18T07:57:19.699Z,60.63
2018-06-18T07:58:23.082Z,60.47
2018-06-18T07:59:25.919Z,60.74
2018-06-18T08:00:28.721Z,60.81
2018-06-18T08:01:31.838Z,60.68
2018-06-18T08:02:34.614Z,60.25
2018-06-18T08:03:37.705Z,60.77
2018-06-18T08:04:45.269Z,61.85
2018-06-18T08:05:48.059Z,61.67
2018-06-18T08:06:50.856Z,61.56
2018-06-18T08:07:55.088Z,61.03
2018-06-18T08:08:57.869Z,61.89
2018-06-18T08:10:00.776Z,61.10
2018-06-18T08:11:04.236Z,60.82
2018-06-18T08:12:06.988Z,60.42
2018-06-18T08:13:09.801Z,61.38
2018-06-18T08:14:13.077Z,60.19
2018-06-18T08:15:15.939Z,60.79
2018-06-18T08:16:18.797Z,60.22
2018-06-18T08:17:22.615Z,59.68
2018-06-18T08:18:25.489Z,60.54
2018-06-18T08:19:28.255Z,60.53
2018-06-18T08:20:34.770Z,59.85
2018-06-18T08:21:37.725Z,58.79
2018-06-18T08:22:41.486Z,58.42
2018-06-18T08:23:44.325Z,59.16
2018-06-18T08:24:47.266Z,59.07
2018-06-18T08:25:50.034Z,59.50
2018-06-18T08:26:53.194Z,60.33
2018-06-18T08:27:57.929Z,60.88
2018-06-18T08:29:00.723Z,61.46
2018-06-18T08:30:03.620Z,60.43
2018-06-18T08:31:06.697Z,59.71
2018-06-18T08:32:10.517Z,60.57
2018-06-18T08:33:13.340Z,60.41
2018-06-18T08:34:16.220Z,61.21
2018-06-18T08:35:21.643Z,61.16
2018-06-18T08:36:24.471Z,61.19
2018-06-18T08:37:27.291Z,61.04
2018-06-18T08:38:30.625Z,61.69
2018-06-18T08:39:34.591Z,61.06
2018-06-18T08:40:37.419Z,61.48
2018-06-18T08:41:41.103Z,61.04
2018-06-18T08:42:43.890Z,61.08
2018-06-18T08:43:46.795Z,61.99
2018-06-18T08:44:52.618Z,62.25
2018-06-18T08:45:55.724Z,63.03
2018-06-18T08:46:58.841Z,62.88
2018-06-18T08:48:01.631Z,63.04
2018-06-18T08:49:07.057Z,62.66
2018-06-18T08:50:15.767Z,62.57
2018-06-18T08:51:24.208Z,63.02
2018-06-18T08:52:31.903Z,61.02
2018-06-18T08:53:39.505Z,61.84
2018-06-18T08:54:47.240Z,60.76
2018-06-18T08:55:54.932Z,60.99
2018-06-18T08:57:02.787Z,60.55
2018-06-18T08:58:10.679Z,60.83
2018-06-18T08:59:19.887Z,61.34
2018-06-18T09:00:27.500Z,60.79
2018-06-18T09:01:33.473Z,59.88
2018-06-18T09:02:36.466Z,59.89
2018-06-18T09:03:46.023Z,60.76
2018-06-18T09:04:54.622Z,60.23
2018-06-18T09:06:03.493Z,61.70
2018-06-18T09:07:16.204Z,62.75
2018-06-18T09:08:28.129Z,63.05
2018-06-18T09:09:31.130Z,63.03
2018-06-18T09:10:34.921Z,63.13
2018-06-18T09:11:38.435Z,62.60
2018-06-18T09:12:41.181Z,61.56
2018-06-18T09:13:44.620Z,62.04
2018-06-18T09:14:47.847Z,61.51
2018-06-18T09:15:51.839Z,61.27
2018-06-18T09:16:54.603Z,61.55
2018-06-18T09:17:58.320Z,61.65
2018-06-18T09:19:02.283Z,62.35
2018-06-18T09:20:05.089Z,61.91
2018-06-18T09:21:09.609Z,62.29
2018-06-18T09:22:12.672Z,63.56
2018-06-18T09:23:16.421Z,63.26
2018-06-18T09:24:19.400Z,62.66
2018-06-18T09:25:22.782Z,62.63
2018-06-18T09:26:25.701Z,62.54
2018-06-18T09:27:29.720Z,62.83
2018-06-18T09:28:33.805Z,62.66
2018-06-18T09:29:38.543Z,63.95
2018-06-18T09:30:41.359Z,63.52
2018-06-18T09:31:50.179Z,63.92
2018-06-18T09:32:52.991Z,63.90
2018-06-18T09:33:55.772Z,63.85
2018-06-18T09:35:00.201Z,63.29
2018-06-18T09:36:03.829Z,63.70
2018-06-18T09:37:08.212Z,63.66
2018-06-18T09:38:11.368Z,62.28
2018-06-18T09:39:16.125Z,61.74
2018-06-18T09:40:18.929Z,62.65
2018-06-18T09:41:21.718Z,62.77
2018-06-18T09:42:24.546Z,62.73
2018-06-18T09:43:28.204Z,61.90
2018-06-18T09:44:32.015Z,61.64
2018-06-18T09:45:36.688Z,62.80
2018-06-18T09:46:40.390Z,62.95
2018-06-18T09:47:43.162Z,63.29
2018-06-18T09:48:50.850Z,62.55
2018-06-18T09:49:58.429Z,63.41
2018-06-18T09:51:07.561Z,65.01
2018-06-18T09:52:15.138Z,65.00
2018-06-18T09:53:23.595Z,65.30
2018-06-18T09:56:33.744Z,65.04
2018-06-18T09:57:41.801Z,64.41
2018-06-18T09:58:50.088Z,64.67
2018-06-18T09:59:57.817Z,65.26
2018-06-18T10:01:03.111Z,65.17
2018-06-18T10:02:06.952Z,64.38
2018-06-18T10:03:14.123Z,64.81
2018-06-18T10:04:19.099Z,62.48
2018-06-18T10:05:21.893Z,63.59
2018-06-18T10:06:27.076Z,64.28
2018-06-18T10:07:31.054Z,63.33
2018-06-18T10:08:33.928Z,63.12
2018-06-18T10:09:37.194Z,62.86
2018-06-18T10:10:40.061Z,61.88
2018-06-18T10:11:42.850Z,63.50
2018-06-18T10:12:45.718Z,62.74
2018-06-18T10:13:48.559Z,63.52
2018-06-18T10:14:51.361Z,61.74
2018-06-18T10:15:54.628Z,62.41
2018-06-18T10:16:58.717Z,62.51
2018-06-18T10:18:02.184Z,61.07
2018-06-18T10:19:04.982Z,61.30
2018-06-18T10:20:07.777Z,62.45
2018-06-18T10:21:11.874Z,62.66
2018-06-18T10:22:15.176Z,62.17
2018-06-18T10:23:17.969Z,62.83
2018-06-18T10:24:21.159Z,63.10
2018-06-18T10:25:24.916Z,62.70
2018-06-18T10:26:27.705Z,62.55
2018-06-18T10:27:30.522Z,62.04
2018-06-18T10:28:34.474Z,61.70
2018-06-18T10:29:37.304Z,61.86
2018-06-18T10:30:41.961Z,61.46
2018-06-18T10:31:44.814Z,60.46
2018-06-18T10:32:52.421Z,60.48
2018-06-18T10:34:00.279Z,61.45
2018-06-18T10:35:07.980Z,60.98
2018-06-18T10:36:15.793Z,60.33
2018-06-18T10:37:24.078Z,60.44
2018-06-18T10:38:31.805Z,61.43
2018-06-18T10:39:39.486Z,60.44
2018-06-18T10:40:47.595Z,60.95
2018-06-18T10:42:00.617Z,60.68
2018-06-18T10:43:08.304Z,61.73
2018-06-18T10:44:11.099Z,61.56
2018-06-18T10:45:13.875Z,61.17
2018-06-18T10:46:18.099Z,60.64
2018-06-18T10:47:21.267Z,59.95
2018-06-18T10:48:24.565Z,59.86
2018-06-18T10:49:31.905Z,59.69
2018-06-18T10:50:35.555Z,59.71
2018-06-18T10:51:38.410Z,59.83
2018-06-18T10:52:41.237Z,60.33
2018-06-18T10:53:44.871Z,60.09
2018-06-18T10:54:48.677Z,60.21
2018-06-18T10:55:51.455Z,60.08
2018-06-18T10:56:55.468Z,60.03
2018-06-18T10:57:58.273Z,59.56
2018-06-18T10:59:02.701Z,60.60
2018-06-18T11:00:10.630Z,61.51
2018-06-18T11:01:15.568Z,60.24
2018-06-18T11:02:21.283Z,60.94
2018-06-18T11:03:25.430Z,60.80
2018-06-18T11:04:38.259Z,60.46
2018-06-18T11:05:48.919Z,60.59
2018-06-18T11:06:55.367Z,60.41
2018-06-18T11:07:59.852Z,59.88
2018-06-18T11:09:04.530Z,60.44
2018-06-18T11:10:10.746Z,60.31
2018-06-18T11:11:18.240Z,59.81
2018-06-18T11:12:22.071Z,59.38
2018-06-18T11:13:27.946Z,59.17
2018-06-18T11:14:30.821Z,57.71
2018-06-18T11:15:40.325Z,58.35
2018-06-18T11:16:46.840Z,58.56
2018-06-18T11:17:54.652Z,58.73
2018-06-18T11:19:06.799Z,58.26
2018-06-18T11:20:14.407Z,57.93
2018-06-18T11:21:22.207Z,58.68
2018-06-18T11:22:29.719Z,57.96
2018-06-18T11:23:37.408Z,57.75
2018-06-18T11:24:45.707Z,58.13
2018-06-18T11:25:53.992Z,58.46
2018-06-18T11:26:57.904Z,59.27
2018-06-18T11:28:02.344Z,57.95
2018-06-18T11:29:06.131Z,58.07
2018-06-18T11:30:16.539Z,57.52
2018-06-18T11:31:25.453Z,57.39
2018-06-18T11:32:29.136Z,58.22
2018-06-18T11:33:34.078Z,57.46
2018-06-18T11:34:37.977Z,56.82
2018-06-18T11:35:42.296Z,56.72
2018-06-18T11:36:45.937Z,56.58
2018-06-18T11:37:49.360Z,56.73
2018-06-18T11:38:52.229Z,57.05
2018-06-18T11:39:55.618Z,57.45
2018-06-18T11:40:58.706Z,57.14
2018-06-18T11:42:03.377Z,57.40
2018-06-18T11:43:06.145Z,56.54
2018-06-18T11:44:09.272Z,57.09
2018-06-18T11:45:12.204Z,58.12
2018-06-18T11:46:18.169Z,57.62
2018-06-18T11:47:22.201Z,58.08
2018-06-18T11:48:25.935Z,58.39
2018-06-18T11:49:28.737Z,58.77
2018-06-18T11:50:33.749Z,58.45
2018-06-18T11:51:36.547Z,57.81
2018-06-18T11:52:39.367Z,58.11
2018-06-18T11:53:42.776Z,58.26
2018-06-18T11:54:45.608Z,58.17
2018-06-18T11:55:50.377Z,57.81
2018-06-18T11:56:54.575Z,58.57
2018-06-18T11:57:57.669Z,58.56
2018-06-18T11:59:06.187Z,59.58
2018-06-18T12:00:13.917Z,58.93
2018-06-18T12:01:22.414Z,60.28
2018-06-18T12:02:30.403Z,60.35
2018-06-18T12:03:38.134Z,60.30
2018-06-18T12:04:45.884Z,59.83
2018-06-18T12:07:59.928Z,60.53
2018-06-18T12:09:08.563Z,59.83
2018-06-18T12:10:12.188Z,59.47
2018-06-18T12:11:16.606Z,58.68
2018-06-18T12:12:19.419Z,59.12
2018-06-18T12:13:22.957Z,59.26
2018-06-18T12:14:30.707Z,59.62
2018-06-18T12:15:33.544Z,59.17
2018-06-18T12:16:38.218Z,58.69
2018-06-18T12:17:41.800Z,59.74
2018-06-18T12:18:44.800Z,59.26
2018-06-18T12:19:48.462Z,58.93
2018-06-18T12:20:52.730Z,59.29
2018-06-18T12:21:56.662Z,59.34
2018-06-18T12:23:00.781Z,59.69
2018-06-18T12:24:04.381Z,59.06
2018-06-18T12:25:08.799Z,59.13
2018-06-18T12:26:13.601Z,59.51
2018-06-18T12:27:18.392Z,58.95
2018-06-18T12:28:23.216Z,58.81
2018-06-18T12:29:27.324Z,58.63
2018-06-18T12:30:30.698Z,57.49
2018-06-18T12:31:33.535Z,58.79
2018-06-18T12:32:37.877Z,57.51
2018-06-18T12:33:42.099Z,58.35
2018-06-18T12:34:44.904Z,57.03
2018-06-18T12:37:04.800Z,56.69
2018-06-18T12:38:11.523Z,56.70
2018-06-18T12:39:15.953Z,57.97
2018-06-18T12:40:19.370Z,57.65
2018-06-18T12:41:22.219Z,57.83
2018-06-18T12:42:25.044Z,58.72
2018-06-18T12:43:29.221Z,58.75
2018-06-18T12:44:36.845Z,58.28
2018-06-18T12:45:44.650Z,57.75
2018-06-18T12:46:53.465Z,58.08
2018-06-18T12:48:01.778Z,58.18
2018-06-18T12:49:09.347Z,57.46
2018-06-18T12:50:20.098Z,57.96
2018-06-18T12:51:27.797Z,57.25
2018-06-18T12:52:35.509Z,57.39
2018-06-18T12:53:43.559Z,57.51
2018-06-18T12:54:51.232Z,56.45
2018-06-18T12:56:00.071Z,56.43
2018-06-18T12:57:06.446Z,56.49
2018-06-18T12:58:09.292Z,57.67
2018-06-18T12:59:12.134Z,57.62
2018-06-18T13:00:16.079Z,57.27
2018-06-18T13:01:18.856Z,56.34
2018-06-18T13:02:22.512Z,56.91
2018-06-18T13:03:26.026Z,56.58
2018-06-18T13:04:28.821Z,56.96
2018-06-18T13:05:32.358Z,58.05
2018-06-18T13:06:36.016Z,57.08
2018-06-18T13:07:38.801Z,58.36
2018-06-18T13:08:42.590Z,57.90
2018-06-18T13:09:45.353Z,58.36
2018-06-18T13:10:48.146Z,58.12
2018-06-18T13:11:52.046Z,58.29
2018-06-18T13:12:55.143Z,57.72
2018-06-18T13:14:01.240Z,57.93
2018-06-18T13:15:04.018Z,58.71
2018-06-18T13:16:07.733Z,58.96
2018-06-18T13:17:10.498Z,58.22
2018-06-18T13:18:13.835Z,58.48
2018-06-18T13:19:16.605Z,58.41
2018-06-18T13:20:19.449Z,58.12
2018-06-18T13:21:22.241Z,57.84
2018-06-18T13:22:26.494Z,57.63
2018-06-18T13:23:29.244Z,57.89
2018-06-18T13:24:33.748Z,57.09
2018-06-18T13:25:36.501Z,57.15
2018-06-18T13:26:39.302Z,57.73
2018-06-18T13:27:47.604Z,56.80
2018-06-18T13:28:52.224Z,56.36
2018-06-18T13:29:55.694Z,57.07
2018-06-18T13:31:00.120Z,56.36
2018-06-18T13:32:04.464Z,57.20
2018-06-18T13:33:08.076Z,56.44
2018-06-18T13:34:12.668Z,57.92
2018-06-18T13:35:15.469Z,56.66
2018-06-18T13:36:19.436Z,57.24
2018-06-18T13:37:27.972Z,56.41
2018-06-18T13:38:35.996Z,57.26
2018-06-18T13:39:43.620Z,56.86
2018-06-18T13:40:53.078Z,57.20
2018-06-18T13:42:01.737Z,56.68
2018-06-18T13:43:09.732Z,56.42
2018-06-18T13:44:17.461Z,56.52
2018-06-18T13:45:25.239Z,56.42
2018-06-18T13:46:33.248Z,57.43
2018-06-18T13:47:40.922Z,57.09
2018-06-18T13:48:48.681Z,57.37
2018-06-18T13:49:56.383Z,56.15
2018-06-18T13:51:03.762Z,56.58